Aviation Digital Data Service (ADDS)

Output produced by TAFs form (0312 UTC 22 April 2018)
found at http://aviationweather.gov/adds/tafs/
 
METAR text: KLAX 220253Z 25007KT 10SM SCT180 BKN220 16/12 A2996 RMK AO2 SLP145 T01610117 55003
Conditions at: KLAX (LOS ANGELES , CA, US) observed 0253 UTC 22 April 2018
Temperature: 16.1°C (61°F)
Dewpoint: 11.7°C (53°F) [RH = 75%]
Pressure (altimeter): 29.96 inches Hg (1014.6 mb)
[Sea-level pressure: 1014.5 mb]
Winds: from the WSW (250 degrees) at 8 MPH (7 knots; 3.6 m/s)
Visibility: 10 or more miles (16+ km)
Ceiling: 22000 feet AGL
Clouds: scattered clouds at 18000 feet AGL
broken clouds at 22000 feet AGL
Weather: no significant weather observed at this time

Forecast for: KLAX (LOS ANGELES , CA, US)
Text: KLAX 220300Z 2203/2306 25008KT P6SM SCT250
Forecast period: 0300 to 1000 UTC 22 April 2018
Forecast type: FROM: standard forecast or significant change
Winds: from the WSW (250 degrees) at 9 MPH (8 knots; 4.2 m/s)
Visibility: 6 or more miles (10+ km)
Clouds: scattered clouds at 25000 feet AGL
Weather: no significant weather forecast for this period
Forecast for: KLAX (LOS ANGELES , CA, US)
Text: KLAX 220300Z 2203/2306 25008KT P6SM SCT250
Forecast period: 0300 to 1000 UTC 22 April 2018
Forecast type: FROM: standard forecast or significant change
Winds: from the WSW (250 degrees) at 9 MPH (8 knots; 4.2 m/s)
Visibility: 6 or more miles (10+ km)
Clouds: scattered clouds at 25000 feet AGL
Weather: no significant weather forecast for this period
Forecast for: KLAX (LOS ANGELES , CA, US)
Text: KLAX 220300Z 2203/2306 25008KT P6SM SCT250
Forecast period: 1000 to 1400 UTC 22 April 2018
Forecast type: FROM: standard forecast or significant change
Winds: variable direction winds at 3 MPH (3 knots; 1.6 m/s)
Visibility: 1.00 miles (1.61 km)
Ceiling: 200 feet AGL
Clouds: overcast cloud deck at 200 feet AGL
Weather: BR VCFG  (mist, fog in vicinity)
Forecast for: KLAX (LOS ANGELES , CA, US)
Text: KLAX 220300Z 2203/2306 25008KT P6SM SCT250
Forecast period: 1000 to 1400 UTC 22 April 2018
Forecast type: FROM: standard forecast or significant change
Winds: variable direction winds at 3 MPH (3 knots; 1.6 m/s)
Visibility: 1.00 miles (1.61 km)
Ceiling: 200 feet AGL
Clouds: overcast cloud deck at 200 feet AGL
Weather: BR VCFG  (mist, fog in vicinity)
Forecast for: KLAX (LOS ANGELES , CA, US)
Text: KLAX 220300Z 2203/2306 25008KT P6SM SCT250
Forecast period: 1400 to 1700 UTC 22 April 2018
Forecast type: FROM: standard forecast or significant change
Winds: variable direction winds at 3 MPH (3 knots; 1.6 m/s)
Visibility: 5 miles (8 km)
Ceiling: 500 feet AGL
Clouds: broken clouds at 500 feet AGL
Weather: BR VCFG  (mist, fog in vicinity)
Forecast for: KLAX (LOS ANGELES , CA, US)
Text: KLAX 220300Z 2203/2306 25008KT P6SM SCT250
Forecast period: 1400 to 1700 UTC 22 April 2018
Forecast type: FROM: standard forecast or significant change
Winds: variable direction winds at 3 MPH (3 knots; 1.6 m/s)
Visibility: 5 miles (8 km)
Ceiling: 500 feet AGL
Clouds: broken clouds at 500 feet AGL
Weather: BR VCFG  (mist, fog in vicinity)
Forecast for: KLAX (LOS ANGELES , CA, US)
Text: KLAX 220300Z 2203/2306 25008KT P6SM SCT250
Forecast period: 1700 to 1900 UTC 22 April 2018
Forecast type: FROM: standard forecast or significant change
Winds: from the WSW (250 degrees) at 9 MPH (8 knots; 4.2 m/s)
Visibility: 6 or more miles (10+ km)
Clouds: scattered clouds at 1000 feet AGL
Weather: no significant weather forecast for this period
Forecast for: KLAX (LOS ANGELES , CA, US)
Text: KLAX 220300Z 2203/2306 25008KT P6SM SCT250
Forecast period: 1700 to 1900 UTC 22 April 2018
Forecast type: FROM: standard forecast or significant change
Winds: from the WSW (250 degrees) at 9 MPH (8 knots; 4.2 m/s)
Visibility: 6 or more miles (10+ km)
Clouds: scattered clouds at 1000 feet AGL
Weather: no significant weather forecast for this period
Forecast for: KLAX (LOS ANGELES , CA, US)
Text: KLAX 220300Z 2203/2306 25008KT P6SM SCT250
Forecast period: 1900 UTC 22 April 2018 to 0400 UTC 23 April 2018
Forecast type: FROM: standard forecast or significant change
Winds: from the W (260 degrees) at 12 MPH (10 knots; 5.2 m/s)
Visibility: 6 or more miles (10+ km)
Clouds: few clouds at 1000 feet AGL
Weather: no significant weather forecast for this period
Forecast for: KLAX (LOS ANGELES , CA, US)
Text: KLAX 220300Z 2203/2306 25008KT P6SM SCT250
Forecast period: 1900 UTC 22 April 2018 to 0400 UTC 23 April 2018
Forecast type: FROM: standard forecast or significant change
Winds: from the W (260 degrees) at 12 MPH (10 knots; 5.2 m/s)
Visibility: 6 or more miles (10+ km)
Clouds: few clouds at 1000 feet AGL
Weather: no significant weather forecast for this period
Forecast for: KLAX (LOS ANGELES , CA, US)
Text: KLAX 220300Z 2203/2306 25008KT P6SM SCT250
Forecast period: 0400 to 0600 UTC 23 April 2018
Forecast type: FROM: standard forecast or significant change
Winds: from the WSW (250 degrees) at 9 MPH (8 knots; 4.2 m/s)
Visibility: 6 miles (10 km)
Ceiling: 700 feet AGL
Clouds: broken clouds at 700 feet AGL
Weather: BR  (mist)
Forecast for: KLAX (LOS ANGELES , CA, US)
Text: KLAX 220300Z 2203/2306 25008KT P6SM SCT250
Forecast period: 0400 to 0600 UTC 23 April 2018
Forecast type: FROM: standard forecast or significant change
Winds: from the WSW (250 degrees) at 9 MPH (8 knots; 4.2 m/s)
Visibility: 6 miles (10 km)
Ceiling: 700 feet AGL
Clouds: broken clouds at 700 feet AGL
Weather: BR  (mist)